Time;durP1;ratioP1;P1;durP2;ratioP2;P2;SDS_P1;SDS_P2;PMS_P1;PMS_P2;Temp;Humidity;BMP_temperature;BMP_pressure;BME280_temperature;BME280_humidity;BME280_pressure;Samples;Min_cycle;Max_cycle;Signal;HPM_P1;HPM_P2
2021/12/12 00:03:36;;;;;;;1999.90;999.90;;;-6.90;99.90;;;;;;10456119;28;20568;-67
2021/12/12 00:08:45;;;;;;;1999.90;999.90;;;-6.80;99.90;;;;;;10455758;28;20040;-67
2021/12/12 00:13:59;;;;;;;1999.90;999.90;;;-6.80;99.90;;;;;;10439637;28;20045;-67
2021/12/12 00:19:05;;;;;;;1999.90;999.90;;;-6.70;99.90;;;;;;10455969;28;20126;-67
2021/12/12 00:24:12;;;;;;;1999.90;999.90;;;-6.60;99.90;;;;;;10455962;28;20060;-67
2021/12/12 00:29:19;;;;;;;1999.90;999.90;;;-6.50;99.90;;;;;;10455805;28;20053;-67
2021/12/12 00:34:25;;;;;;;1999.90;999.90;;;-6.40;99.90;;;;;;10422248;28;20080;-67
2021/12/12 00:39:35;;;;;;;1999.90;999.90;;;-6.20;99.90;;;;;;10455907;28;20067;-67
2021/12/12 00:44:43;;;;;;;1999.90;999.90;;;-6.10;99.90;;;;;;10455510;28;20049;-67
2021/12/12 00:49:49;;;;;;;1999.90;999.90;;;-6.10;99.90;;;;;;10455456;28;20049;-67
2021/12/12 00:54:54;;;;;;;1999.90;999.90;;;-6.00;99.90;;;;;;10455337;28;20048;-66
2021/12/12 00:59:59;;;;;;;1999.90;999.90;;;-6.00;99.90;;;;;;10437408;28;20052;-67
2021/12/12 01:05:07;;;;;;;1999.90;999.90;;;-5.90;99.90;;;;;;10438325;28;20049;-67
2021/12/12 01:10:22;;;;;;;1999.90;999.90;;;-5.90;99.90;;;;;;10454992;28;20103;-67
2021/12/12 01:15:34;;;;;;;1999.90;999.90;;;-5.80;99.90;;;;;;10454800;28;20056;-67
2021/12/12 01:20:46;;;;;;;1999.90;999.90;;;-5.70;99.90;;;;;;10462459;28;20044;-67
2021/12/12 01:25:51;;;;;;;1999.90;999.90;;;-5.60;99.90;;;;;;10462558;28;20045;-67
2021/12/12 01:30:58;;;;;;;1999.90;999.90;;;-5.60;99.90;;;;;;10462017;28;20053;-67
2021/12/12 01:36:23;;;;;;;1999.90;999.90;;;-5.50;99.90;;;;;;10461937;28;20053;-67
2021/12/12 01:41:44;;;;;;;1999.90;999.90;;;-5.40;99.90;;;;;;10461657;28;20429;-67
2021/12/12 01:47:09;;;;;;;1999.90;999.90;;;-5.30;99.90;;;;;;10461239;28;20066;-68
2021/12/12 01:52:21;;;;;;;1999.90;999.90;;;-5.20;99.90;;;;;;10428798;28;20042;-69
2021/12/12 01:57:30;;;;;;;1999.90;999.90;;;-5.10;99.90;;;;;;10430711;28;20548;-67
2021/12/12 02:02:36;;;;;;;1999.90;999.90;;;-5.10;99.90;;;;;;10420509;28;20095;-67
2021/12/12 02:07:50;;;;;;;1999.90;999.90;;;-5.10;99.90;;;;;;10438583;28;20046;-67
2021/12/12 02:13:01;;;;;;;1999.90;999.90;;;-5.00;99.90;;;;;;10437229;28;20049;-66
2021/12/12 02:18:10;;;;;;;1999.90;999.90;;;-4.90;99.90;;;;;;10438621;28;20041;-66
2021/12/12 02:23:46;;;;;;;1999.90;999.90;;;-4.90;99.90;;;;;;10436998;28;20049;-67
2021/12/12 02:39:42;;;;;;;1999.90;999.90;;;-4.80;99.90;;;;;;10435990;28;20494;-67
2021/12/12 02:44:53;;;;;;;1999.90;999.90;;;-4.80;99.90;;;;;;10428596;28;20053;-67
2021/12/12 02:50:13;;;;;;;1999.90;999.90;;;-4.70;99.90;;;;;;10418902;28;20049;-67
2021/12/12 02:55:24;;;;;;;1999.90;999.90;;;-4.60;99.90;;;;;;10419197;28;20042;-67
2021/12/12 03:00:34;;;;;;;1999.90;999.90;;;-4.50;99.90;;;;;;10418982;28;20054;-67
2021/12/12 03:05:43;;;;;;;1999.90;999.90;;;-4.50;99.90;;;;;;10416951;28;20091;-67
2021/12/12 03:10:51;;;;;;;1999.90;999.90;;;-4.50;99.90;;;;;;10417979;28;20549;-67
2021/12/12 03:15:56;;;;;;;1999.90;999.90;;;-4.40;99.90;;;;;;10417341;28;20037;-67
2021/12/12 03:21:14;;;;;;;1999.90;999.90;;;-4.40;99.90;;;;;;10399116;28;20402;-67
2021/12/12 03:26:20;;;;;;;1999.90;999.90;;;-4.40;99.90;;;;;;10416879;28;20045;-67
2021/12/12 03:31:32;;;;;;;1999.90;999.90;;;-4.30;99.90;;;;;;10416466;28;20100;-67
2021/12/12 03:36:37;;;;;;;1999.90;999.90;;;-4.30;99.90;;;;;;10416135;28;20103;-67
2021/12/12 03:41:44;;;;;;;1999.90;999.90;;;-4.30;99.90;;;;;;10415411;28;20049;-67
2021/12/12 03:46:52;;;;;;;1999.90;999.90;;;-4.20;99.90;;;;;;10415716;28;20053;-67
2021/12/12 03:51:57;;;;;;;1999.90;999.90;;;-4.20;99.90;;;;;;10398728;28;20057;-67
2021/12/12 03:57:04;;;;;;;1999.90;999.90;;;-4.20;99.90;;;;;;10415360;28;20461;-66
2021/12/12 04:02:09;;;;;;;1999.90;999.90;;;-4.10;99.90;;;;;;10415268;28;20045;-67
2021/12/12 04:07:18;;;;;;;1999.90;999.90;;;-4.00;99.90;;;;;;10415151;28;20502;-67
2021/12/12 04:12:24;;;;;;;1999.90;999.90;;;-4.00;99.90;;;;;;10415473;28;20068;-67
2021/12/12 04:17:31;;;;;;;1999.90;999.90;;;-3.90;99.90;;;;;;10414715;28;20053;-67
2021/12/12 04:22:36;;;;;;;1999.90;999.90;;;-4.00;99.90;;;;;;10415319;28;20486;-67
2021/12/12 04:27:41;;;;;;;1999.90;999.90;;;-3.90;99.90;;;;;;10414605;28;20057;-67
2021/12/12 04:32:47;;;;;;;1999.90;999.90;;;-3.80;99.90;;;;;;10414223;28;20414;-67
2021/12/12 04:37:55;;;;;;;1999.90;999.90;;;-3.80;99.90;;;;;;10397700;28;20042;-67
2021/12/12 04:43:01;;;;;;;1999.90;999.90;;;-3.70;99.90;;;;;;10414364;28;20049;-67
2021/12/12 04:53:51;;;;;;;1999.90;999.90;;;-3.70;99.90;;;;;;10419021;28;20060;-67
2021/12/12 04:59:04;;;;;;;1999.90;999.90;;;-3.70;99.90;;;;;;10422144;28;20057;-67
2021/12/12 05:04:32;;;;;;;1999.90;999.90;;;-3.70;99.90;;;;;;10422369;28;20041;-67
2021/12/12 05:09:53;;;;;;;1999.90;999.90;;;-3.70;99.90;;;;;;10421743;28;20080;-67
2021/12/12 05:15:06;;;;;;;1999.90;999.90;;;-3.80;99.90;;;;;;10422329;28;20056;-67
2021/12/12 05:20:16;;;;;;;1999.90;999.90;;;-3.70;99.90;;;;;;10421351;28;20045;-67
2021/12/12 05:25:25;;;;;;;1999.90;999.90;;;-3.70;99.90;;;;;;10421608;28;20065;-67
2021/12/12 05:30:33;;;;;;;1999.90;999.90;;;-3.60;99.90;;;;;;10404103;28;20045;-68
2021/12/12 05:35:39;;;;;;;1999.90;999.90;;;-3.60;99.90;;;;;;10403781;28;20049;-67
2021/12/12 05:40:46;;;;;;;1999.90;999.90;;;-3.50;99.90;;;;;;10437586;28;20091;-67
2021/12/12 05:45:52;;;;;;;1999.90;999.90;;;-3.50;99.90;;;;;;10461505;28;20041;-67
2021/12/12 05:50:59;;;;;;;1999.90;999.90;;;-3.40;99.90;;;;;;10461566;28;20061;-67
2021/12/12 05:56:06;;;;;;;1999.90;999.90;;;-3.40;99.90;;;;;;10461763;28;20099;-67
2021/12/12 06:01:11;;;;;;;1999.90;999.90;;;-3.40;99.90;;;;;;10461525;28;20071;-67
2021/12/12 06:06:27;;;;;;;1999.90;999.90;;;-3.40;99.90;;;;;;10442269;28;20049;-67
2021/12/12 06:11:36;;;;;;;1999.90;999.90;;;-3.30;99.90;;;;;;10443880;28;20091;-67
2021/12/12 06:16:42;;;;;;;1999.90;999.90;;;-3.30;99.90;;;;;;10460317;28;20103;-68
2021/12/12 06:21:54;;;;;;;1999.90;999.90;;;-3.30;99.90;;;;;;10459792;28;20049;-67
2021/12/12 06:27:13;;;;;;;1999.90;999.90;;;-3.20;99.90;;;;;;10442972;28;20051;-67
2021/12/12 06:32:21;;;;;;;1999.90;999.90;;;-3.20;99.90;;;;;;10459717;28;20056;-67
2021/12/12 06:37:26;;;;;;;1999.90;999.90;;;-3.10;99.90;;;;;;10459512;28;20079;-67
2021/12/12 06:42:31;;;;;;;1999.90;999.90;;;-3.10;99.90;;;;;;10459362;28;20048;-67
2021/12/12 06:47:38;;;;;;;1999.90;999.90;;;-3.10;99.90;;;;;;10442277;28;20045;-67
2021/12/12 06:52:43;;;;;;;1999.90;999.90;;;-3.00;99.90;;;;;;10459670;28;20041;-67
2021/12/12 06:57:49;;;;;;;1999.90;999.90;;;-3.00;99.90;;;;;;10459295;28;20371;-67
2021/12/12 07:02:56;;;;;;;1999.90;999.90;;;-3.00;99.90;;;;;;10458487;28;20083;-67
2021/12/12 07:08:03;;;;;;;1999.90;999.90;;;-3.00;99.90;;;;;;10458561;28;20111;-67
2021/12/12 07:13:09;;;;;;;1999.90;999.90;;;-3.00;99.90;;;;;;10458285;28;20052;-67
2021/12/12 07:18:17;;;;;;;1999.90;999.90;;;-2.90;99.90;;;;;;10440370;28;20049;-67
2021/12/12 07:23:23;;;;;;;1999.90;999.90;;;-2.80;99.90;;;;;;10458275;28;20041;-67
2021/12/12 07:28:30;;;;;;;1999.90;999.90;;;-2.80;99.90;;;;;;10439800;28;20460;-67
2021/12/12 07:33:35;;;;;;;1999.90;999.90;;;-2.80;99.90;;;;;;10440532;28;20394;-67
2021/12/12 07:38:46;;;;;;;1999.90;999.90;;;-2.70;99.90;;;;;;10440659;28;20048;-67
2021/12/12 07:43:52;;;;;;;1999.90;999.90;;;-2.60;99.90;;;;;;10457670;28;20481;-66
2021/12/12 07:48:57;;;;;;;1999.90;999.90;;;-2.60;99.90;;;;;;10439255;28;20453;-66
2021/12/12 07:54:04;;;;;;;1999.90;999.90;;;-2.50;99.90;;;;;;10456859;28;20060;-66
2021/12/12 07:59:10;;;;;;;1999.90;999.90;;;-2.40;99.90;;;;;;10457083;28;20049;-67
2021/12/12 08:04:17;;;;;;;1999.90;999.90;;;-2.40;99.90;;;;;;10456243;28;20045;-67
2021/12/12 08:09:24;;;;;;;1999.90;999.90;;;-2.30;99.90;;;;;;10456810;28;20052;-67
2021/12/12 08:14:31;;;;;;;1999.90;999.90;;;-2.20;99.90;;;;;;10438447;28;20053;-67
2021/12/12 08:19:37;;;;;;;1999.90;999.90;;;-2.00;99.90;;;;;;10457154;28;20037;-67
2021/12/12 08:24:42;;;;;;;1999.90;999.90;;;-2.00;99.90;;;;;;10457156;28;20571;-67
2021/12/12 08:29:46;;;;;;;1999.90;999.90;;;-1.80;99.90;;;;;;10467971;28;20056;-67
2021/12/12 08:34:51;;;;;;;1999.90;999.90;;;-1.60;99.90;;;;;;10469811;28;20060;-67
2021/12/12 08:39:56;;;;;;;1999.90;999.90;;;-1.60;99.90;;;;;;10469320;28;20048;-66
2021/12/12 08:45:09;;;;;;;1999.90;999.90;;;-1.60;99.90;;;;;;10469115;28;20057;-67
2021/12/12 08:50:17;;;;;;;1999.90;999.90;;;-1.40;99.90;;;;;;10469796;28;20091;-67
2021/12/12 08:55:31;;;;;;;1999.90;999.90;;;-1.30;99.90;;;;;;10451825;28;20053;-66
2021/12/12 09:00:40;;;;;;;1999.90;999.90;;;-1.20;99.90;;;;;;10469021;28;20049;-67
2021/12/12 09:05:46;;;;;;;1999.90;999.90;;;-1.10;99.90;;;;;;10441641;28;20053;-68
2021/12/12 09:10:56;;;;;;;1999.90;999.90;;;-0.90;99.90;;;;;;10427691;28;20104;-67
2021/12/12 09:16:21;;;;;;;;;;;-0.90;99.90;;;;;;10428738;28;20556;-67
2021/12/12 09:21:48;;;;;;;1999.90;999.90;;;-0.70;99.90;;;;;;10410580;28;19921;-67
2021/12/12 09:26:59;;;;;;;1999.90;999.90;;;-0.70;99.90;;;;;;10427411;28;20046;-67
2021/12/12 09:32:11;;;;;;;1999.90;999.90;;;-0.70;99.90;;;;;;10427251;28;20437;-67
2021/12/12 09:37:25;;;;;;;1999.90;999.90;;;-0.60;99.90;;;;;;10426841;28;20077;-67
2021/12/12 09:43:07;;;;;;;1999.90;999.90;;;-0.50;99.90;;;;;;10387693;28;20050;-67
2021/12/12 09:54:14;;;;;;;1999.90;999.90;;;-0.40;99.90;;;;;;10455390;28;20057;-67
2021/12/12 09:59:43;;;;;;;1999.90;999.90;;;-0.40;99.90;;;;;;10460927;28;20094;-67
2021/12/12 10:05:14;;;;;;;1999.90;999.90;;;-0.30;99.90;;;;;;10460525;28;20049;-67
2021/12/12 10:10:45;;;;;;;1999.90;999.90;;;-0.40;99.90;;;;;;10460819;28;20045;-67
2021/12/12 10:16:01;;;;;;;1999.90;999.90;;;-0.40;99.90;;;;;;10451577;28;20103;-66
2021/12/12 10:21:13;;;;;;;1999.90;999.90;;;-0.30;99.90;;;;;;10461082;28;20452;-67
2021/12/12 10:26:29;;;;;;;1999.90;999.90;;;-0.20;99.90;;;;;;10459869;28;20073;-66
2021/12/12 10:31:40;;;;;;;1999.90;999.90;;;-0.20;99.90;;;;;;10459721;28;20049;-65
2021/12/12 10:36:58;;;;;;;1999.90;999.90;;;-0.20;99.90;;;;;;10459381;28;20103;-67
2021/12/12 10:42:13;;;;;;;1999.90;999.90;;;-0.10;99.90;;;;;;10459929;28;20099;-67
2021/12/12 10:47:20;;;;;;;1999.90;999.90;;;-0.10;99.90;;;;;;10459887;28;20037;-67
2021/12/12 10:52:31;;;;;;;1999.90;999.90;;;0.00;99.90;;;;;;10441070;28;20402;-67
2021/12/12 10:57:39;;;;;;;1999.90;999.90;;;0.00;99.90;;;;;;10458987;28;20410;-66
2021/12/12 11:02:54;;;;;;;1999.90;999.90;;;-0.10;99.90;;;;;;10459310;28;20056;-66
2021/12/12 11:08:22;;;;;;;1999.90;999.90;;;-0.20;99.90;;;;;;10458999;28;20044;-66
2021/12/12 11:14:11;;;;;;;1999.90;999.90;;;-0.10;99.90;;;;;;10457829;28;20103;-67
2021/12/12 11:19:29;;;;;;;1999.90;999.90;;;-0.10;99.90;;;;;;10440488;28;20049;-66
2021/12/12 11:24:40;;;;;;;1999.90;999.90;;;-0.10;99.90;;;;;;10457586;28;20041;-67
2021/12/12 11:30:01;;;;;;;1999.90;999.90;;;-0.20;99.90;;;;;;10457691;28;20052;-67
2021/12/12 11:35:09;;;;;;;1999.90;999.90;;;-0.20;99.90;;;;;;10457778;28;20111;-66
2021/12/12 11:40:22;;;;;;;1999.90;999.90;;;-0.20;99.90;;;;;;10458267;28;20057;-67
2021/12/12 11:45:29;;;;;;;1999.90;999.90;;;-0.30;99.90;;;;;;10457067;28;20049;-67
2021/12/12 11:50:46;;;;;;;1999.90;999.90;;;-0.30;99.90;;;;;;10456875;28;20102;-67
2021/12/12 11:56:10;;;;;;;1999.90;999.90;;;-0.30;99.90;;;;;;10456601;28;20413;-68
2021/12/12 12:01:40;;;;;;;1999.90;999.90;;;-0.10;99.90;;;;;;10456153;28;20045;-68
2021/12/12 12:07:12;;;;;;;1999.90;999.90;;;0.00;99.90;;;;;;10456621;28;20045;-67
2021/12/12 12:12:54;;;;;;;1999.90;999.90;;;0.10;99.90;;;;;;10429273;28;20106;-67
2021/12/12 12:18:22;;;;;;;1999.90;999.90;;;0.20;99.90;;;;;;10456062;28;20053;-67
2021/12/12 12:29:22;;;;;;;1999.90;999.90;;;0.30;99.90;;;;;;10454867;28;20099;-67
2021/12/12 12:34:45;;;;;;;;;;;0.30;99.90;;;;;;10453595;28;20056;-67
2021/12/12 12:40:37;;;;;;;1999.90;999.90;;;0.30;99.90;;;;;;10455505;28;19921;-67
2021/12/12 12:46:08;;;;;;;1999.90;999.90;;;0.30;99.90;;;;;;10455801;28;20095;-67
2021/12/12 12:51:16;;;;;;;1999.90;999.90;;;0.20;99.90;;;;;;10455459;28;20068;-67
2021/12/12 12:56:58;;;;;;;1999.90;999.90;;;0.20;99.90;;;;;;10455239;28;20049;-67
2021/12/12 13:02:04;;;;;;;1999.90;999.90;;;0.20;99.90;;;;;;10455114;28;20064;-67
2021/12/12 13:07:40;;;;;;;1999.90;999.90;;;0.10;99.90;;;;;;10455129;28;20057;-67
2021/12/12 13:13:07;;;;;;;1999.90;999.90;;;0.20;99.90;;;;;;10456274;28;20106;-67
2021/12/12 13:18:36;;;;;;;1999.90;999.90;;;0.20;99.90;;;;;;10445733;28;20448;-67
2021/12/12 13:24:00;;;;;;;1999.90;999.90;;;0.10;99.90;;;;;;10462448;28;20099;-67
2021/12/12 13:29:16;;;;;;;1999.90;999.90;;;0.10;99.90;;;;;;10462400;28;20505;-67
2021/12/12 13:34:39;;;;;;;1999.90;999.90;;;0.00;99.90;;;;;;10462458;28;20379;-67
2021/12/12 13:39:59;;;;;;;1999.90;999.90;;;0.00;99.90;;;;;;10461644;28;20080;-67
2021/12/12 13:45:10;;;;;;;1999.90;999.90;;;0.00;99.90;;;;;;10444592;28;20088;-67
2021/12/12 13:50:21;;;;;;;1999.90;999.90;;;0.00;99.90;;;;;;10461605;28;20068;-67
2021/12/12 13:55:41;;;;;;;1999.90;999.90;;;-0.10;99.90;;;;;;10444489;28;20091;-67
2021/12/12 14:00:50;;;;;;;1999.90;999.90;;;-0.20;99.90;;;;;;10461317;28;20048;-67
2021/12/12 14:05:56;;;;;;;1999.90;999.90;;;-0.30;99.90;;;;;;10427289;28;20056;-67
2021/12/12 14:11:04;;;;;;;1999.90;999.90;;;-0.30;99.90;;;;;;10460685;28;20053;-67
2021/12/12 14:16:29;;;;;;;1999.90;999.90;;;-0.30;99.90;;;;;;10443631;28;20049;-67
2021/12/12 14:21:36;;;;;;;1999.90;999.90;;;-0.30;99.90;;;;;;10460098;28;20052;-67
2021/12/12 14:26:45;;;;;;;1999.90;999.90;;;-0.30;99.90;;;;;;10459070;28;20041;-67
2021/12/12 14:32:00;;;;;;;1999.90;999.90;;;-0.30;99.90;;;;;;10471027;28;20053;-67
2021/12/12 14:37:09;;;;;;;1999.90;999.90;;;-0.30;99.90;;;;;;10459847;28;20049;-67
2021/12/12 14:42:26;;;;;;;1999.90;999.90;;;-0.30;99.90;;;;;;10459515;28;20635;-67
2021/12/12 14:47:32;;;;;;;1999.90;999.90;;;-0.30;99.90;;;;;;10459345;28;20072;-67
2021/12/12 14:52:39;;;;;;;1999.90;999.90;;;-0.30;99.90;;;;;;10442073;28;20045;-67
2021/12/12 14:57:49;;;;;;;1999.90;999.90;;;-0.30;99.90;;;;;;10441781;28;20048;-67
2021/12/12 15:03:25;;;;;;;1999.90;999.90;;;-0.30;99.90;;;;;;10459176;28;20063;-67
2021/12/12 15:08:42;;;;;;;1999.90;999.90;;;-0.40;99.90;;;;;;10458559;28;20074;-68
2021/12/12 15:13:50;;;;;;;1999.90;999.90;;;-0.30;99.90;;;;;;10458981;28;20432;-67
2021/12/12 15:18:56;;;;;;;1999.90;999.90;;;-0.30;99.90;;;;;;10458131;28;20049;-67
2021/12/12 15:24:20;;;;;;;1999.90;999.90;;;-0.30;99.90;;;;;;10458487;28;20099;-67
2021/12/12 15:29:28;;;;;;;1999.90;999.90;;;-0.40;99.90;;;;;;10457668;28;20053;-66
2021/12/12 15:34:36;;;;;;;1999.90;999.90;;;-0.40;99.90;;;;;;10424044;28;20057;-66
2021/12/12 15:39:55;;;;;;;1999.90;999.90;;;-0.40;99.90;;;;;;10457046;28;20044;-67
2021/12/12 15:45:07;;;;;;;1999.90;999.90;;;-0.40;99.90;;;;;;10457027;28;20048;-67
2021/12/12 15:50:35;;;;;;;1999.90;999.90;;;-0.40;99.90;;;;;;10457516;28;20045;-67
2021/12/12 15:55:48;;;;;;;1999.90;999.90;;;-0.40;99.90;;;;;;10456748;28;20107;-67
2021/12/12 16:00:58;;;;;;;1999.90;999.90;;;-0.30;99.90;;;;;;10457117;28;20095;-67
2021/12/12 16:06:04;;;;;;;1999.90;999.90;;;-0.30;99.90;;;;;;10456225;28;20052;-67
2021/12/12 16:11:16;;;;;;;1999.90;999.90;;;-0.30;99.90;;;;;;10444278;28;20050;-67
2021/12/12 16:16:29;;;;;;;1999.90;999.90;;;-0.30;99.90;;;;;;10443330;28;20042;-67
2021/12/12 16:21:47;;;;;;;1999.90;999.90;;;-0.40;99.90;;;;;;10439363;28;20139;-67
2021/12/12 16:26:53;;;;;;;1999.90;999.90;;;-0.30;99.90;;;;;;10455564;28;20532;-67
2021/12/12 16:32:00;;;;;;;1999.90;999.90;;;-0.30;99.90;;;;;;10466142;28;20387;-66
2021/12/12 16:37:12;;;;;;;1999.90;999.90;;;-0.20;99.90;;;;;;10438781;28;20553;-66
2021/12/12 16:42:22;;;;;;;1999.90;999.90;;;-0.10;99.90;;;;;;10456066;28;20095;-66
2021/12/12 16:47:31;;;;;;;1999.90;999.90;;;-0.10;99.90;;;;;;10456771;28;20398;-66
2021/12/12 16:52:41;;;;;;;1999.90;999.90;;;-0.10;99.90;;;;;;10464008;28;20115;-66
2021/12/12 16:57:48;;;;;;;1999.90;999.90;;;-0.10;99.90;;;;;;10429852;28;20448;-67
2021/12/12 17:03:00;;;;;;;1999.90;999.90;;;-0.10;99.90;;;;;;10429351;28;20056;-67
2021/12/12 17:08:15;;;;;;;1999.90;999.90;;;-0.10;99.90;;;;;;10463592;28;20041;-66
2021/12/12 17:13:21;;;;;;;1999.90;999.90;;;-0.10;99.90;;;;;;10463852;28;20090;-66
2021/12/12 17:18:32;;;;;;;1999.90;999.90;;;0.00;99.90;;;;;;10463974;28;20044;-66
2021/12/12 17:23:44;;;;;;;1999.90;999.90;;;-0.10;99.90;;;;;;10445706;28;20080;-67
2021/12/12 17:28:56;;;;;;;1999.90;999.90;;;0.00;99.90;;;;;;10444795;28;20049;-67
2021/12/12 17:34:10;;;;;;;1999.90;999.90;;;0.10;99.90;;;;;;10462345;28;20049;-67
2021/12/12 17:39:26;;;;;;;1999.90;999.90;;;0.10;99.90;;;;;;10445018;28;20482;-67
2021/12/12 17:45:15;;;;;;;1999.90;999.90;;;0.10;99.90;;;;;;10442315;28;20037;-66
2021/12/12 17:50:49;;;;;;;1999.90;999.90;;;0.00;99.90;;;;;;10444210;28;20095;-67
2021/12/12 17:56:06;;;;;;;1999.90;999.90;;;0.10;99.90;;;;;;10395250;28;20061;-66
2021/12/12 18:01:26;;;;;;;1999.90;999.90;;;0.10;99.90;;;;;;10440660;28;20033;-67
2021/12/12 18:06:36;;;;;;;1999.90;999.90;;;0.20;99.90;;;;;;10461494;28;20498;-67
2021/12/12 18:11:40;;;;;;;1999.90;999.90;;;0.10;99.90;;;;;;10440948;28;20091;-66
2021/12/12 18:17:03;;;;;;;1999.90;999.90;;;0.20;99.90;;;;;;10442880;28;20079;-67
2021/12/12 18:22:10;;;;;;;1999.90;999.90;;;0.20;99.90;;;;;;10426678;28;20067;-67
2021/12/12 18:27:19;;;;;;;1999.90;999.90;;;0.20;99.90;;;;;;10460500;28;20037;-67
2021/12/12 18:32:34;;;;;;;1999.90;999.90;;;0.20;99.90;;;;;;10460613;28;20552;-66
2021/12/12 18:37:44;;;;;;;1999.90;999.90;;;0.20;99.90;;;;;;10442861;28;20045;-67
2021/12/12 18:42:50;;;;;;;;;;;0.20;99.90;;;;;;10442926;28;20052;-66
2021/12/12 18:47:58;;;;;;;1999.90;999.90;;;0.10;99.90;;;;;;10459405;28;19966;-66
2021/12/12 18:53:15;;;;;;;1999.90;999.90;;;0.00;99.90;;;;;;10459790;28;20041;-66
2021/12/12 18:58:32;;;;;;;1999.90;999.90;;;0.00;99.90;;;;;;10459542;28;20045;-66
2021/12/12 19:03:43;;;;;;;1999.90;999.90;;;-0.10;99.90;;;;;;10459171;28;20033;-67
2021/12/12 19:08:49;;;;;;;1999.90;999.90;;;-0.10;99.90;;;;;;10457915;28;20041;-67
2021/12/12 19:14:00;;;;;;;1999.90;999.90;;;-0.20;99.90;;;;;;10440134;28;20057;-67
2021/12/12 19:19:08;;;;;;;1999.90;999.90;;;-0.10;99.90;;;;;;10457917;28;20049;-67
2021/12/12 19:24:23;;;;;;;1999.90;999.90;;;-0.10;99.90;;;;;;10423632;28;20058;-66
2021/12/12 19:29:35;;;;;;;1999.90;999.90;;;-0.10;99.90;;;;;;10457844;28;20052;-66
2021/12/12 19:34:45;;;;;;;1999.90;999.90;;;-0.20;99.90;;;;;;10398395;28;20425;-66
2021/12/12 19:40:01;;;;;;;1999.90;999.90;;;-0.20;99.90;;;;;;10415213;28;20037;-66
2021/12/12 19:45:22;;;;;;;1999.90;999.90;;;-0.10;99.90;;;;;;10416022;28;20038;-67
2021/12/12 19:50:31;;;;;;;1999.90;999.90;;;-0.10;99.90;;;;;;10415793;28;20045;-66
2021/12/12 19:55:46;;;;;;;1999.90;999.90;;;-0.10;99.90;;;;;;10416171;28;20049;-67
2021/12/12 20:00:58;;;;;;;1999.90;999.90;;;-0.10;99.90;;;;;;10416210;28;20099;-68
2021/12/12 20:06:16;;;;;;;1999.90;999.90;;;-0.10;99.90;;;;;;10414157;28;20092;-66
2021/12/12 20:11:33;;;;;;;1999.90;999.90;;;-0.10;99.90;;;;;;10429230;28;20394;-66
2021/12/12 20:16:46;;;;;;;1999.90;999.90;;;-0.10;99.90;;;;;;10414258;28;20091;-66
2021/12/12 20:22:15;;;;;;;1999.90;999.90;;;-0.10;99.90;;;;;;10414323;28;20403;-67
2021/12/12 20:27:29;;;;;;;1999.90;999.90;;;-0.10;99.90;;;;;;10415166;28;20103;-66
2021/12/12 20:32:38;;;;;;;1999.90;999.90;;;-0.10;99.90;;;;;;10426031;28;20111;-66
2021/12/12 20:38:11;;;;;;;1999.90;999.90;;;-0.10;99.90;;;;;;10456244;28;20049;-66
2021/12/12 20:43:25;;;;;;;1999.90;999.90;;;-0.10;99.90;;;;;;10438215;28;20053;-67
2021/12/12 20:48:41;;;;;;;1999.90;999.90;;;-0.20;99.90;;;;;;10436144;28;20045;-67
2021/12/12 20:53:56;;;;;;;1999.90;999.90;;;-0.20;99.90;;;;;;10423469;28;20103;-67
2021/12/12 20:59:00;;;;;;;1999.90;999.90;;;-0.20;99.90;;;;;;10438335;28;20094;-66
2021/12/12 21:04:15;;;;;;;1999.90;999.90;;;-0.10;99.90;;;;;;10438213;28;20045;-67
2021/12/12 21:09:27;;;;;;;1999.90;999.90;;;-0.20;99.90;;;;;;10328653;28;20496;-67
2021/12/12 21:14:34;;;;;;;1999.90;999.90;;;-0.20;99.90;;;;;;10329164;28;20458;-67
2021/12/12 21:19:40;;;;;;;1999.90;999.90;;;-0.20;99.90;;;;;;10327571;28;20499;-67
2021/12/12 21:24:56;;;;;;;1999.90;999.90;;;-0.20;99.90;;;;;;10297522;28;20475;-67
2021/12/12 21:30:09;;;;;;;1999.90;999.90;;;-0.10;99.90;;;;;;10333258;28;20050;-67
2021/12/12 21:35:13;;;;;;;1999.90;999.90;;;-0.10;99.90;;;;;;10356030;28;20089;-67
2021/12/12 21:40:18;;;;;;;1999.90;999.90;;;-0.10;99.90;;;;;;10376874;28;20057;-67
2021/12/12 21:45:26;;;;;;;1999.90;999.90;;;-0.20;99.90;;;;;;10437023;28;20497;-67
2021/12/12 21:50:44;;;;;;;1999.90;999.90;;;-0.10;99.90;;;;;;10461419;28;20049;-67
2021/12/12 21:56:03;;;;;;;1999.90;999.90;;;-0.10;99.90;;;;;;10475903;28;20040;-66
2021/12/12 22:01:19;;;;;;;1999.90;999.90;;;-0.10;99.90;;;;;;10425444;28;20041;-67
2021/12/12 22:06:26;;;;;;;1999.90;999.90;;;0.00;99.90;;;;;;10461562;28;20067;-67
2021/12/12 22:11:58;;;;;;;1999.90;999.90;;;0.00;99.90;;;;;;10444075;28;20040;-67
2021/12/12 22:17:28;;;;;;;1999.90;999.90;;;0.00;99.90;;;;;;10459471;28;20106;-67
2021/12/12 22:22:35;;;;;;;;;;;0.10;99.90;;;;;;10435298;28;20406;-67
2021/12/12 22:27:42;;;;;;;1999.90;999.90;;;0.10;99.90;;;;;;10402019;28;19921;-68
2021/12/12 22:33:05;;;;;;;1999.90;999.90;;;0.10;99.90;;;;;;10417785;28;20572;-68
2021/12/12 22:38:16;;;;;;;1999.90;999.90;;;0.10;99.90;;;;;;10401571;28;20469;-68
2021/12/12 22:43:23;;;;;;;1999.90;999.90;;;0.00;99.90;;;;;;10419159;28;20042;-67
2021/12/12 22:48:36;;;;;;;1999.90;999.90;;;0.00;99.90;;;;;;10417344;28;20099;-67
2021/12/12 22:53:46;;;;;;;1999.90;999.90;;;0.00;99.90;;;;;;10417916;28;20050;-67
2021/12/12 22:59:37;;;;;;;1999.90;999.90;;;-0.10;99.90;;;;;;10418342;28;20045;-68
2021/12/12 23:04:50;;;;;;;1999.90;999.90;;;0.00;99.90;;;;;;10299249;28;20118;-67
2021/12/12 23:10:23;;;;;;;1999.90;999.90;;;0.10;99.90;;;;;;10418080;28;20548;-68
2021/12/12 23:15:27;;;;;;;;;;;0.10;99.90;;;;;;10400451;28;20045;-67
2021/12/12 23:20:39;;;;;;;1999.90;999.90;;;0.10;99.90;;;;;;10417460;28;20433;-67
2021/12/12 23:25:47;;;;;;;1999.90;999.90;;;0.10;99.90;;;;;;10417165;28;20045;-66
2021/12/12 23:30:52;;;;;;;1999.90;999.90;;;0.10;99.90;;;;;;10415822;28;20049;-67
2021/12/12 23:35:59;;;;;;;1999.90;999.90;;;0.10;99.90;;;;;;10416629;28;20054;-67
2021/12/12 23:41:31;;;;;;;1999.90;999.90;;;0.20;99.90;;;;;;10416960;28;20063;-67
2021/12/12 23:46:59;;;;;;;1999.90;999.90;;;0.20;99.90;;;;;;10444520;28;20095;-67
2021/12/12 23:52:11;;;;;;;1999.90;999.90;;;0.20;99.90;;;;;;10407836;28;20052;-67
2021/12/12 23:57:23;;;;;;;1999.90;999.90;;;0.20;99.90;;;;;;10456405;28;20099;-67
